sensor_id;sensor_type;location;lat;lon;timestamp;pressure;altitude;pressure_sealevel;temperature;humidity
46614;BME280;32338;50.430;6.806;2023-05-23T00:02:11;66851.94;;;13.14;100.00
46614;BME280;32338;50.430;6.806;2023-05-23T00:04:39;66844.97;;;13.06;100.00
46614;BME280;32338;50.430;6.806;2023-05-23T00:07:07;66838.94;;;13.03;100.00
46614;BME280;32338;50.430;6.806;2023-05-23T00:09:34;66826.88;;;12.89;100.00
46614;BME280;32338;50.430;6.806;2023-05-23T00:12:00;66827.06;;;12.92;100.00
46614;BME280;32338;50.430;6.806;2023-05-23T00:14:28;66817.84;;;12.81;100.00
46614;BME280;32338;50.430;6.806;2023-05-23T00:16:58;66810.16;;;12.76;100.00
46614;BME280;32338;50.430;6.806;2023-05-23T00:19:25;66811.63;;;12.75;100.00
46614;BME280;32338;50.430;6.806;2023-05-23T00:21:52;66813.34;;;12.77;100.00
46614;BME280;32338;50.430;6.806;2023-05-23T00:24:22;66814.84;;;12.83;100.00
46614;BME280;32338;50.430;6.806;2023-05-23T00:26:49;66824.63;;;12.87;100.00
46614;BME280;32338;50.430;6.806;2023-05-23T00:29:16;66827.06;;;12.92;100.00
46614;BME280;32338;50.430;6.806;2023-05-23T00:31:45;66835.16;;;12.94;100.00
46614;BME280;32338;50.430;6.806;2023-05-23T00:34:12;66834.22;;;12.96;100.00
46614;BME280;32338;50.430;6.806;2023-05-23T00:36:39;66841.56;;;13.03;100.00
46614;BME280;32338;50.430;6.806;2023-05-23T00:39:06;66848.34;;;13.09;100.00
46614;BME280;32338;50.430;6.806;2023-05-23T00:41:33;66846.06;;;13.07;100.00
46614;BME280;32338;50.430;6.806;2023-05-23T00:44:00;66842.34;;;13.06;100.00
46614;BME280;32338;50.430;6.806;2023-05-23T00:46:28;66841.00;;;13.02;100.00
46614;BME280;32338;50.430;6.806;2023-05-23T00:48:56;66840.44;;;13.02;100.00
46614;BME280;32338;50.430;6.806;2023-05-23T00:51:23;66844.19;;;13.03;100.00
46614;BME280;32338;50.430;6.806;2023-05-23T00:53:50;66841.00;;;13.02;100.00
46614;BME280;32338;50.430;6.806;2023-05-23T00:56:17;66842.13;;;13.03;100.00
46614;BME280;32338;50.430;6.806;2023-05-23T00:58:44;66837.81;;;13.02;100.00
46614;BME280;32338;50.430;6.806;2023-05-23T01:01:10;66842.13;;;13.03;100.00
46614;BME280;32338;50.430;6.806;2023-05-23T01:03:37;66837.41;;;12.96;100.00
46614;BME280;32338;50.430;6.806;2023-05-23T01:06:05;66834.44;;;12.98;100.00
46614;BME280;32338;50.430;6.806;2023-05-23T01:08:32;66836.28;;;12.95;100.00
46614;BME280;32338;50.430;6.806;2023-05-23T01:11:05;66827.84;;;12.95;100.00
46614;BME280;32338;50.430;6.806;2023-05-23T01:13:42;66824.44;;;12.92;100.00
46614;BME280;32338;50.430;6.806;2023-05-23T01:16:13;66829.91;;;12.87;100.00
46614;BME280;32338;50.430;6.806;2023-05-23T01:18:47;66828.41;;;12.88;100.00
46614;BME280;32338;50.430;6.806;2023-05-23T01:21:21;66820.09;;;12.83;100.00
46614;BME280;32338;50.430;6.806;2023-05-23T01:24:12;66828.59;;;12.91;100.00
46614;BME280;32338;50.430;6.806;2023-05-23T01:26:59;66838.19;;;13.00;100.00
46614;BME280;32338;50.430;6.806;2023-05-23T01:29:31;66841.56;;;13.03;100.00
46614;BME280;32338;50.430;6.806;2023-05-23T01:32:00;66841.00;;;13.02;100.00
46614;BME280;32338;50.430;6.806;2023-05-23T01:34:27;66842.13;;;13.03;100.00
46614;BME280;32338;50.430;6.806;2023-05-23T01:36:55;66844.97;;;13.06;100.00
46614;BME280;32338;50.430;6.806;2023-05-23T01:39:22;66837.63;;;12.99;100.00
46614;BME280;32338;50.430;6.806;2023-05-23T01:41:50;66832.34;;;12.92;100.00
46614;BME280;32338;50.430;6.806;2023-05-23T01:44:17;66816.16;;;12.79;100.00
46614;BME280;32338;50.430;6.806;2023-05-23T01:46:46;66820.09;;;12.83;100.00
46614;BME280;32338;50.430;6.806;2023-05-23T01:49:13;66811.47;;;12.80;100.00
46614;BME280;32338;50.430;6.806;2023-05-23T01:51:41;66813.34;;;12.77;100.00
46614;BME280;32338;50.430;6.806;2023-05-23T01:54:08;66809.94;;;12.74;100.00
46614;BME280;32338;50.430;6.806;2023-05-23T01:56:35;66812.59;;;12.74;100.00
46614;BME280;32338;50.430;6.806;2023-05-23T01:59:02;66818.81;;;12.79;100.00
46614;BME280;32338;50.430;6.806;2023-05-23T02:01:29;66814.66;;;12.80;100.00
46614;BME280;32338;50.430;6.806;2023-05-23T02:03:57;66823.88;;;12.84;100.00
46614;BME280;32338;50.430;6.806;2023-05-23T02:06:24;66823.88;;;12.84;100.00
46614;BME280;32338;50.430;6.806;2023-05-23T02:08:51;66821.25;;;12.84;100.00
46614;BME280;32338;50.430;6.806;2023-05-23T02:11:17;66823.50;;;12.86;100.00
46614;BME280;32338;50.430;6.806;2023-05-23T02:13:44;66821.25;;;12.84;100.00
46614;BME280;32338;50.430;6.806;2023-05-23T02:16:10;66819.56;;;12.82;100.00
46614;BME280;32338;50.430;6.806;2023-05-23T02:18:38;66820.84;;;12.79;100.00
46614;BME280;32338;50.430;6.806;2023-05-23T02:21:06;66818.41;;;12.81;100.00
46614;BME280;32338;50.430;6.806;2023-05-23T02:23:32;66825.00;;;12.85;100.00
46614;BME280;32338;50.430;6.806;2023-05-23T02:25:59;66827.28;;;12.87;100.00
46614;BME280;32338;50.430;6.806;2023-05-23T02:28:26;66827.06;;;12.92;100.00
46614;BME280;32338;50.430;6.806;2023-05-23T02:30:52;66829.16;;;12.91;100.00
46614;BME280;32338;50.430;6.806;2023-05-23T02:33:19;66823.50;;;12.86;100.00
46614;BME280;32338;50.430;6.806;2023-05-23T02:35:45;66821.25;;;12.84;100.00
46614;BME280;32338;50.430;6.806;2023-05-23T02:38:15;66806.94;;;12.69;100.00
46614;BME280;32338;50.430;6.806;2023-05-23T02:40:44;66798.84;;;12.66;100.00
46614;BME280;32338;50.430;6.806;2023-05-23T02:43:10;66796.97;;;12.62;100.00
46614;BME280;32338;50.430;6.806;2023-05-23T02:45:37;66795.66;;;12.58;100.00
46614;BME280;32338;50.430;6.806;2023-05-23T02:48:03;66790.41;;;12.58;100.00
46614;BME280;32338;50.430;6.806;2023-05-23T02:50:30;66776.28;;;12.45;100.00
46614;BME280;32338;50.430;6.806;2023-05-23T02:52:56;66794.88;;;12.55;100.00
46614;BME280;32338;50.430;6.806;2023-05-23T02:55:24;66789.81;;;12.58;100.00
46614;BME280;32338;50.430;6.806;2023-05-23T02:57:51;66784.38;;;12.55;100.00
46614;BME280;32338;50.430;6.806;2023-05-23T03:00:18;66795.47;;;12.56;100.00
46614;BME280;32338;50.430;6.806;2023-05-23T03:02:45;66770.44;;;12.38;100.00
46614;BME280;32338;50.430;6.806;2023-05-23T03:05:12;66768.38;;;12.38;100.00
46614;BME280;32338;50.430;6.806;2023-05-23T03:07:38;66759.00;;;12.32;100.00
46614;BME280;32338;50.430;6.806;2023-05-23T03:10:06;66767.06;;;12.35;100.00
46614;BME280;32338;50.430;6.806;2023-05-23T03:12:34;66778.34;;;12.45;100.00
46614;BME280;32338;50.430;6.806;2023-05-23T03:15:01;66775.53;;;12.42;100.00
46614;BME280;32338;50.430;6.806;2023-05-23T03:17:27;66766.88;;;12.39;100.00
46614;BME280;32338;50.430;6.806;2023-05-23T03:19:54;66767.44;;;12.32;100.00
46614;BME280;32338;50.430;6.806;2023-05-23T03:22:21;66763.47;;;12.29;100.00
46614;BME280;32338;50.430;6.806;2023-05-23T03:24:47;66765.16;;;12.30;100.00
46614;BME280;32338;50.430;6.806;2023-05-23T03:27:14;66770.25;;;12.35;100.00
46614;BME280;32338;50.430;6.806;2023-05-23T03:29:42;66769.88;;;12.37;100.00
46614;BME280;32338;50.430;6.806;2023-05-23T03:32:08;66762.53;;;12.30;100.00
46614;BME280;32338;50.430;6.806;2023-05-23T03:34:35;66769.69;;;12.35;100.00
46614;BME280;32338;50.430;6.806;2023-05-23T03:37:03;66757.28;;;12.30;100.00
46614;BME280;32338;50.430;6.806;2023-05-23T03:39:29;66761.97;;;12.30;100.00
46614;BME280;32338;50.430;6.806;2023-05-23T03:41:56;66754.25;;;12.25;100.00
46614;BME280;32338;50.430;6.806;2023-05-23T03:44:23;66755.75;;;12.24;100.00
46614;BME280;32338;50.430;6.806;2023-05-23T03:46:51;66746.38;;;12.18;100.00
46614;BME280;32338;50.430;6.806;2023-05-23T03:49:18;66744.88;;;12.12;100.00
46614;BME280;32338;50.430;6.806;2023-05-23T03:51:44;66743.16;;;12.10;100.00
46614;BME280;32338;50.430;6.806;2023-05-23T03:54:11;66727.94;;;11.96;100.00
46614;BME280;32338;50.430;6.806;2023-05-23T03:56:37;66718.50;;;11.90;100.00
46614;BME280;32338;50.430;6.806;2023-05-23T03:59:04;66717.00;;;11.91;100.00
46614;BME280;32338;50.430;6.806;2023-05-23T04:01:30;66715.50;;;11.85;100.00
46614;BME280;32338;50.430;6.806;2023-05-23T04:03:58;66720.38;;;11.87;100.00
46614;BME280;32338;50.430;6.806;2023-05-23T04:06:25;66726.44;;;11.97;100.00
46614;BME280;32338;50.430;6.806;2023-05-23T04:08:55;66717.94;;;11.90;100.00
46614;BME280;32338;50.430;6.806;2023-05-23T04:11:22;66727.38;;;11.96;100.00
46614;BME280;32338;50.430;6.806;2023-05-23T04:13:48;66718.69;;;11.93;100.00
46614;BME280;32338;50.430;6.806;2023-05-23T04:16:16;66710.25;;;11.85;100.00
46614;BME280;32338;50.430;6.806;2023-05-23T04:18:43;66710.06;;;11.82;100.00
46614;BME280;32338;50.430;6.806;2023-05-23T04:21:12;66706.09;;;11.79;100.00
46614;BME280;32338;50.430;6.806;2023-05-23T04:23:39;66715.31;;;11.90;100.00
46614;BME280;32338;50.430;6.806;2023-05-23T04:26:06;66718.50;;;11.90;100.00
46614;BME280;32338;50.430;6.806;2023-05-23T04:28:34;66704.97;;;11.78;100.00
46614;BME280;32338;50.430;6.806;2023-05-23T04:31:01;66703.84;;;11.77;100.00
46614;BME280;32338;50.430;6.806;2023-05-23T04:33:28;66701.44;;;11.79;100.00
46614;BME280;32338;50.430;6.806;2023-05-23T04:35:55;66712.50;;;11.87;100.00
46614;BME280;32338;50.430;6.806;2023-05-23T04:38:23;66711.53;;;11.81;100.00
46614;BME280;32338;50.430;6.806;2023-05-23T04:40:50;66700.47;;;11.74;100.00
46614;BME280;32338;50.430;6.806;2023-05-23T04:43:17;66706.69;;;11.79;100.00
46614;BME280;32338;50.430;6.806;2023-05-23T04:45:44;66715.69;;;11.88;100.00
46614;BME280;32338;50.430;6.806;2023-05-23T04:48:11;66704.06;;;11.79;100.00
46614;BME280;32338;50.430;6.806;2023-05-23T04:50:41;66714.75;;;11.82;100.00
46614;BME280;32338;50.430;6.806;2023-05-23T04:53:07;66705.34;;;11.76;100.00
46614;BME280;32338;50.430;6.806;2023-05-23T04:55:35;66700.66;;;11.76;100.00
46614;BME280;32338;50.430;6.806;2023-05-23T04:58:02;66698.03;;;11.76;100.00
46614;BME280;32338;50.430;6.806;2023-05-23T05:00:29;66700.47;;;11.74;100.00
46614;BME280;32338;50.430;6.806;2023-05-23T05:02:55;66695.56;;;11.72;100.00
46614;BME280;32338;50.430;6.806;2023-05-23T05:05:22;66693.88;;;11.70;100.00
46614;BME280;32338;50.430;6.806;2023-05-23T05:07:48;66672.09;;;11.52;100.00
46614;BME280;32338;50.430;6.806;2023-05-23T05:10:15;66670.94;;;11.44;100.00
46614;BME280;32338;50.430;6.806;2023-05-23T05:12:45;66664.94;;;11.41;100.00
46614;BME280;32338;50.430;6.806;2023-05-23T05:15:14;66662.31;;;11.41;100.00
46614;BME280;32338;50.430;6.806;2023-05-23T05:17:41;66655.34;;;11.32;100.00
46614;BME280;32338;50.430;6.806;2023-05-23T05:20:09;66649.34;;;11.29;100.00
46614;BME280;32338;50.430;6.806;2023-05-23T05:22:36;66653.66;;;11.31;100.00
46614;BME280;32338;50.430;6.806;2023-05-23T05:25:05;66651.97;;;11.29;100.00
46614;BME280;32338;50.430;6.806;2023-05-23T05:27:32;66644.81;;;11.25;100.00
46614;BME280;32338;50.430;6.806;2023-05-23T05:30:00;66652.69;;;11.25;100.00
46614;BME280;32338;50.430;6.806;2023-05-23T05:32:29;66647.09;;;11.27;100.00
46614;BME280;32338;50.430;6.806;2023-05-23T05:34:58;66651.97;;;11.29;100.00
46614;BME280;32338;50.430;6.806;2023-05-23T05:37:25;66657.03;;;11.34;100.00
46614;BME280;32338;50.430;6.806;2023-05-23T05:39:51;66663.06;;;11.37;100.00
46614;BME280;32338;50.430;6.806;2023-05-23T05:42:19;66665.13;;;11.44;100.00
46614;BME280;32338;50.430;6.806;2023-05-23T05:44:45;66673.03;;;11.51;100.00
46614;BME280;32338;50.430;6.806;2023-05-23T05:47:13;66675.66;;;11.51;100.00
46614;BME280;32338;50.430;6.806;2023-05-23T05:49:40;66681.28;;;11.56;100.00
46614;BME280;32338;50.430;6.806;2023-05-23T05:52:07;66685.25;;;11.60;100.00
46614;BME280;32338;50.430;6.806;2023-05-23T05:54:34;66672.66;;;11.53;100.00
46614;BME280;32338;50.430;6.806;2023-05-23T05:57:01;66674.88;;;11.48;100.00
46614;BME280;32338;50.430;6.806;2023-05-23T05:59:28;66672.84;;;11.48;100.00
46614;BME280;32338;50.430;6.806;2023-05-23T06:01:54;66670.75;;;11.49;100.00
46614;BME280;32338;50.430;6.806;2023-05-23T06:04:22;66671.69;;;11.47;100.00
46614;BME280;32338;50.430;6.806;2023-05-23T06:06:49;66674.88;;;11.48;100.00
46614;BME280;32338;50.430;6.806;2023-05-23T06:09:16;66673.97;;;11.49;100.00
46614;BME280;32338;50.430;6.806;2023-05-23T06:11:43;66679.97;;;11.52;100.00
46614;BME280;32338;50.430;6.806;2023-05-23T06:14:09;66691.63;;;11.61;100.00
46614;BME280;32338;50.430;6.806;2023-05-23T06:16:36;66688.25;;;11.65;100.00
46614;BME280;32338;50.430;6.806;2023-05-23T06:19:03;66682.81;;;11.62;100.00
46614;BME280;32338;50.430;6.806;2023-05-23T06:21:31;66692.94;;;11.64;100.00
46614;BME280;32338;50.430;6.806;2023-05-23T06:23:57;66685.97;;;11.63;100.00
46614;BME280;32338;50.430;6.806;2023-05-23T06:26:24;66694.06;;;11.65;100.00
46614;BME280;32338;50.430;6.806;2023-05-23T06:28:51;66693.13;;;11.67;100.00
46614;BME280;32338;50.430;6.806;2023-05-23T06:31:17;66692.00;;;11.66;100.00
46614;BME280;32338;50.430;6.806;2023-05-23T06:33:44;66693.34;;;11.70;100.00
46614;BME280;32338;50.430;6.806;2023-05-23T06:36:10;66695.19;;;11.66;100.00
46614;BME280;32338;50.430;6.806;2023-05-23T06:38:38;66687.69;;;11.64;100.00
46614;BME280;32338;50.430;6.806;2023-05-23T06:41:05;66695.22;;;11.74;100.00
46614;BME280;32338;50.430;6.806;2023-05-23T06:43:32;66701.03;;;11.74;100.00
46614;BME280;32338;50.430;6.806;2023-05-23T06:45:58;66691.25;;;11.70;100.00
46614;BME280;32338;50.430;6.806;2023-05-23T06:48:25;66695.22;;;11.74;100.00
46614;BME280;32338;50.430;6.806;2023-05-23T06:50:52;66701.03;;;11.74;100.00
46614;BME280;32338;50.430;6.806;2023-05-23T06:53:18;66699.91;;;11.73;100.00
46614;BME280;32338;50.430;6.806;2023-05-23T06:55:46;66703.66;;;11.74;100.00
46614;BME280;32338;50.430;6.806;2023-05-23T06:58:13;66702.34;;;11.78;100.00
46614;BME280;32338;50.430;6.806;2023-05-23T07:00:40;66704.22;;;11.75;100.00
46614;BME280;32338;50.430;6.806;2023-05-23T07:03:06;66691.06;;;11.67;100.00
46614;BME280;32338;50.430;6.806;2023-05-23T07:05:33;66688.25;;;11.65;100.00
46614;BME280;32338;50.430;6.806;2023-05-23T07:08:01;66688.63;;;11.63;100.00
46614;BME280;32338;50.430;6.806;2023-05-23T07:10:27;66680.72;;;11.56;100.00
46614;BME280;32338;50.430;6.806;2023-05-23T07:12:55;66677.91;;;11.53;100.00
46614;BME280;32338;50.430;6.806;2023-05-23T07:15:22;66675.66;;;11.51;100.00
46614;BME280;32338;50.430;6.806;2023-05-23T07:17:49;66679.78;;;11.50;100.00
46614;BME280;32338;50.430;6.806;2023-05-23T07:20:15;66675.66;;;11.51;100.00
46614;BME280;32338;50.430;6.806;2023-05-23T07:22:42;66660.97;;;11.38;100.00
46614;BME280;32338;50.430;6.806;2023-05-23T07:25:09;66655.00;;;11.34;100.00
46614;BME280;32338;50.430;6.806;2023-05-23T07:27:36;66674.88;;;11.48;100.00
46614;BME280;32338;50.430;6.806;2023-05-23T07:30:05;66670.56;;;11.46;100.00
46614;BME280;32338;50.430;6.806;2023-05-23T07:32:33;66679.97;;;11.52;100.00
46614;BME280;32338;50.430;6.806;2023-05-23T07:35:00;66680.34;;;11.58;100.00
46614;BME280;32338;50.430;6.806;2023-05-23T07:37:27;66689.94;;;11.66;100.00
46614;BME280;32338;50.430;6.806;2023-05-23T07:39:54;66704.78;;;11.75;100.00
46614;BME280;32338;50.430;6.806;2023-05-23T07:42:21;66710.41;;;11.80;100.00
46614;BME280;32338;50.430;6.806;2023-05-23T07:44:47;66720.19;;;11.92;100.00
46614;BME280;32338;50.430;6.806;2023-05-23T07:47:15;66715.13;;;11.87;100.00
46614;BME280;32338;50.430;6.806;2023-05-23T07:49:42;66718.69;;;11.86;100.00
46614;BME280;32338;50.430;6.806;2023-05-23T07:52:08;66724.16;;;11.95;100.00
46614;BME280;32338;50.430;6.806;2023-05-23T07:54:35;66723.03;;;11.94;100.00
46614;BME280;32338;50.430;6.806;2023-05-23T07:57:02;66727.00;;;11.98;100.00
46614;BME280;32338;50.430;6.806;2023-05-23T07:59:29;66721.72;;;11.91;100.00
46614;BME280;32338;50.430;6.806;2023-05-23T08:01:55;66715.69;;;11.88;100.00
46614;BME280;32338;50.430;6.806;2023-05-23T08:04:23;66699.53;;;11.75;100.00
46614;BME280;32338;50.430;6.806;2023-05-23T08:06:51;66706.88;;;11.82;100.00
46614;BME280;32338;50.430;6.806;2023-05-23T08:09:17;66715.69;;;11.88;100.00
46614;BME280;32338;50.430;6.806;2023-05-23T08:11:44;66720.19;;;11.92;100.00
46614;BME280;32338;50.430;6.806;2023-05-23T08:14:11;66723.41;;;11.92;100.00
46614;BME280;32338;50.430;6.806;2023-05-23T08:16:37;66709.84;;;11.80;100.00
46614;BME280;32338;50.430;6.806;2023-05-23T08:19:04;66711.38;;;11.86;100.00
46614;BME280;32338;50.430;6.806;2023-05-23T08:21:32;66714.38;;;11.91;100.00
46614;BME280;32338;50.430;6.806;2023-05-23T08:23:58;66729.06;;;11.97;100.00
46614;BME280;32338;50.430;6.806;2023-05-23T08:26:26;66734.34;;;12.12;100.00
46614;BME280;32338;50.430;6.806;2023-05-23T08:28:59;66750.13;;;12.19;100.00
46614;BME280;32338;50.430;6.806;2023-05-23T08:31:26;66777.03;;;12.41;100.00
46614;BME280;32338;50.430;6.806;2023-05-23T08:33:53;66783.63;;;12.52;100.00
46614;BME280;32338;50.430;6.806;2023-05-23T08:36:19;66793.03;;;12.58;100.00
46614;BME280;32338;50.430;6.806;2023-05-23T08:38:48;66788.88;;;12.52;100.00
46614;BME280;32338;50.430;6.806;2023-05-23T08:41:18;66796.59;;;12.64;100.00
46614;BME280;32338;50.430;6.806;2023-05-23T08:43:45;66798.66;;;12.63;100.00
46614;BME280;32338;50.430;6.806;2023-05-23T08:46:12;66799.41;;;12.67;100.00
46614;BME280;32338;50.430;6.806;2023-05-23T08:48:39;66800.16;;;12.62;100.00
46614;BME280;32338;50.430;6.806;2023-05-23T08:51:08;66797.91;;;12.60;100.00
46614;BME280;32338;50.430;6.806;2023-05-23T08:53:35;66798.28;;;12.65;100.00
46614;BME280;32338;50.430;6.806;2023-05-23T08:56:05;66793.59;;;12.59;100.00
46614;BME280;32338;50.430;6.806;2023-05-23T08:58:32;66787.94;;;12.54;100.00
46614;BME280;32338;50.430;6.806;2023-05-23T09:01:00;66779.09;;;12.48;100.00
46614;BME280;32338;50.430;6.806;2023-05-23T09:03:27;66782.66;;;12.46;100.00
46614;BME280;32338;50.430;6.806;2023-05-23T09:05:55;66790.38;;;12.51;100.00
46614;BME280;32338;50.430;6.806;2023-05-23T09:08:23;66781.91;;;12.51;100.00
46614;BME280;32338;50.430;6.806;2023-05-23T09:10:50;66803.72;;;12.68;100.00
46614;BME280;32338;50.430;6.806;2023-05-23T09:13:18;66813.91;;;12.77;100.00
46614;BME280;32338;50.430;6.806;2023-05-23T09:15:55;66822.94;;;12.86;100.00
46614;BME280;32338;50.430;6.806;2023-05-23T09:18:24;66836.88;;;12.96;100.00
46614;BME280;32338;50.430;6.806;2023-05-23T09:20:51;66849.84;;;13.15;100.00
46614;BME280;32338;50.430;6.806;2023-05-23T09:23:18;66867.00;;;13.26;100.00
46614;BME280;32338;50.430;6.806;2023-05-23T09:25:45;66877.69;;;13.36;100.00
46614;BME280;32338;50.430;6.806;2023-05-23T09:28:12;66876.81;;;13.37;100.00
46614;BME280;32338;50.430;6.806;2023-05-23T09:30:40;66896.00;;;13.48;100.00
46614;BME280;32338;50.430;6.806;2023-05-23T09:33:06;66912.19;;;13.67;100.00
46614;BME280;32338;50.430;6.806;2023-05-23T09:35:33;66933.47;;;13.84;100.00
46614;BME280;32338;50.430;6.806;2023-05-23T09:38:00;66931.97;;;13.85;100.00
46614;BME280;32338;50.430;6.806;2023-05-23T09:40:30;66929.91;;;13.78;100.00
46614;BME280;32338;50.430;6.806;2023-05-23T09:43:01;66900.88;;;13.57;100.00
46614;BME280;32338;50.430;6.806;2023-05-23T09:45:28;66892.59;;;13.52;100.00
46614;BME280;32338;50.430;6.806;2023-05-23T09:47:57;66898.06;;;13.54;100.00
46614;BME280;32338;50.430;6.806;2023-05-23T09:50:25;66897.13;;;13.56;100.00
46614;BME280;32338;50.430;6.806;2023-05-23T09:52:56;66900.50;;;13.59;100.00
46614;BME280;32338;50.430;6.806;2023-05-23T09:55:22;66869.03;;;13.25;100.00
46614;BME280;32338;50.430;6.806;2023-05-23T09:57:52;66824.63;;;12.94;100.00
46614;BME280;32338;50.430;6.806;2023-05-23T10:00:22;66832.34;;;12.99;100.00
46614;BME280;32338;50.430;6.806;2023-05-23T10:02:54;66830.66;;;12.90;100.00
46614;BME280;32338;50.430;6.806;2023-05-23T10:05:30;66809.59;;;12.76;100.00
46614;BME280;32338;50.430;6.806;2023-05-23T10:08:00;66812.03;;;12.73;100.00
46614;BME280;32338;50.430;6.806;2023-05-23T10:10:32;66797.16;;;12.64;100.00
46614;BME280;32338;50.430;6.806;2023-05-23T10:13:02;66799.81;;;12.64;100.00
46614;BME280;32338;50.430;6.806;2023-05-23T10:15:35;66788.31;;;12.59;100.00
46614;BME280;32338;50.430;6.806;2023-05-23T10:18:08;66781.72;;;12.48;100.00
46614;BME280;32338;50.430;6.806;2023-05-23T10:20:39;66772.31;;;12.42;100.00
46614;BME280;32338;50.430;6.806;2023-05-23T10:23:09;66778.34;;;12.45;100.00
46614;BME280;32338;50.430;6.806;2023-05-23T10:25:38;66786.25;;;12.45;100.00
46614;BME280;32338;50.430;6.806;2023-05-23T10:28:06;66769.31;;;12.37;100.00
46614;BME280;32338;50.430;6.806;2023-05-23T10:30:33;66763.47;;;12.29;100.00
46614;BME280;32338;50.430;6.806;2023-05-23T10:33:01;66751.06;;;12.18;100.00
46614;BME280;32338;50.430;6.806;2023-05-23T10:35:41;66757.09;;;12.28;100.00
46614;BME280;32338;50.430;6.806;2023-05-23T10:38:23;66773.84;;;12.41;100.00
46614;BME280;32338;50.430;6.806;2023-05-23T10:40:56;66747.69;;;12.22;100.00
46614;BME280;32338;50.430;6.806;2023-05-23T10:43:31;66758.97;;;12.25;100.00
46614;BME280;32338;50.430;6.806;2023-05-23T10:46:00;66756.53;;;12.27;100.00
46614;BME280;32338;50.430;6.806;2023-05-23T10:48:35;66730.38;;;12.01;100.00
46614;BME280;32338;50.430;6.806;2023-05-23T10:51:09;66710.41;;;11.80;100.00
46614;BME280;32338;50.430;6.806;2023-05-23T10:53:37;66696.69;;;11.73;100.00
46614;BME280;32338;50.430;6.806;2023-05-23T10:56:05;66681.28;;;11.56;100.00
46614;BME280;32338;50.430;6.806;2023-05-23T10:58:34;66685.41;;;11.55;100.00
46614;BME280;32338;50.430;6.806;2023-05-23T11:01:04;66671.53;;;11.52;100.00
46614;BME280;32338;50.430;6.806;2023-05-23T11:03:35;66676.41;;;11.54;100.00
46614;BME280;32338;50.430;6.806;2023-05-23T11:06:03;66682.97;;;11.58;100.00
46614;BME280;32338;50.430;6.806;2023-05-23T11:08:38;66686.75;;;11.66;100.00
46614;BME280;32338;50.430;6.806;2023-05-23T11:11:07;66693.53;;;11.72;100.00
46614;BME280;32338;50.430;6.806;2023-05-23T11:13:53;66702.16;;;11.75;100.00
46614;BME280;32338;50.430;6.806;2023-05-23T11:16:23;66696.50;;;11.70;100.00
46614;BME280;32338;50.430;6.806;2023-05-23T11:18:51;66686.38;;;11.61;100.00
46614;BME280;32338;50.430;6.806;2023-05-23T11:21:19;66683.91;;;11.56;100.00
46614;BME280;32338;50.430;6.806;2023-05-23T11:23:53;66699.91;;;11.80;100.00
46614;BME280;32338;50.430;6.806;2023-05-23T11:26:29;66692.94;;;11.72;100.00
46614;BME280;32338;50.430;6.806;2023-05-23T11:28:57;66703.66;;;11.81;100.00
46614;BME280;32338;50.430;6.806;2023-05-23T11:31:24;66699.53;;;11.75;100.00
46614;BME280;32338;50.430;6.806;2023-05-23T11:33:51;66721.13;;;11.90;100.00
46614;BME280;32338;50.430;6.806;2023-05-23T11:36:20;66729.44;;;12.03;100.00
46614;BME280;32338;50.430;6.806;2023-05-23T11:38:49;66741.09;;;12.11;100.00
46614;BME280;32338;50.430;6.806;2023-05-23T11:41:16;66764.44;;;12.35;100.00
46614;BME280;32338;50.430;6.806;2023-05-23T11:43:49;66787.56;;;12.56;100.00
46614;BME280;32338;50.430;6.806;2023-05-23T11:46:16;66818.25;;;12.86;100.00
46614;BME280;32338;50.430;6.806;2023-05-23T11:48:44;66838.94;;;13.03;100.00
46614;BME280;32338;50.430;6.806;2023-05-23T11:51:11;66861.91;;;13.21;100.00
46614;BME280;32338;50.430;6.806;2023-05-23T11:53:38;66878.84;;;13.37;100.00
46614;BME280;32338;50.430;6.806;2023-05-23T11:56:06;66906.53;;;13.62;100.00
46614;BME280;32338;50.430;6.806;2023-05-23T11:58:34;66877.53;;;13.40;100.00
46614;BME280;32338;50.430;6.806;2023-05-23T12:01:03;66873.97;;;13.35;100.00
46614;BME280;32338;50.430;6.806;2023-05-23T12:03:31;66856.06;;;13.13;100.00
46614;BME280;32338;50.430;6.806;2023-05-23T12:05:58;66837.06;;;12.98;100.00
46614;BME280;32338;50.430;6.806;2023-05-23T12:08:25;66825.78;;;12.88;100.00
46614;BME280;32338;50.430;6.806;2023-05-23T12:10:52;66840.44;;;13.02;100.00
46614;BME280;32338;50.430;6.806;2023-05-23T12:13:22;66834.22;;;12.96;100.00
46614;BME280;32338;50.430;6.806;2023-05-23T12:15:52;66842.13;;;13.03;100.00
46614;BME280;32338;50.430;6.806;2023-05-23T12:18:20;66844.75;;;13.03;100.00
46614;BME280;32338;50.430;6.806;2023-05-23T12:20:48;66820.09;;;12.83;100.00
46614;BME280;32338;50.430;6.806;2023-05-23T12:23:17;66805.06;;;12.72;100.00
46614;BME280;32338;50.430;6.806;2023-05-23T12:25:48;66777.41;;;12.46;100.00
46614;BME280;32338;50.430;6.806;2023-05-23T12:28:16;66767.81;;;12.38;100.00
46614;BME280;32338;50.430;6.806;2023-05-23T12:30:44;66767.81;;;12.38;100.00
46614;BME280;32338;50.430;6.806;2023-05-23T12:33:11;66836.47;;;12.98;100.00
46614;BME280;32338;50.430;6.806;2023-05-23T12:35:42;66864.72;;;13.24;100.00
46614;BME280;32338;50.430;6.806;2023-05-23T12:38:09;66892.41;;;13.49;100.00
46614;BME280;32338;50.430;6.806;2023-05-23T12:40:40;66881.69;;;13.39;100.00
46614;BME280;32338;50.430;6.806;2023-05-23T12:43:08;66885.28;;;13.45;100.00
46614;BME280;32338;50.430;6.806;2023-05-23T12:45:35;66888.09;;;13.40;100.00
46614;BME280;32338;50.430;6.806;2023-05-23T12:48:05;66910.31;;;13.70;100.00
46614;BME280;32338;50.430;6.806;2023-05-23T12:50:33;66958.69;;;14.12;100.00
46614;BME280;32338;50.430;6.806;2023-05-23T12:53:00;66956.47;;;14.10;100.00
46614;BME280;32338;50.430;6.806;2023-05-23T12:55:26;66918.03;;;13.75;100.00